sensor_id;sensor_type;location;lat;lon;timestamp;P1;durP1;ratioP1;P2;durP2;ratioP2
12048;SDS011;6085;49.452;8.502;2022-12-07T00:03:16;7.72;;;5.97;;
12048;SDS011;6085;49.452;8.502;2022-12-07T00:07:18;12.60;;;6.88;;
12048;SDS011;6085;49.452;8.502;2022-12-07T00:11:20;10.48;;;6.78;;
12048;SDS011;6085;49.452;8.502;2022-12-07T00:15:23;9.75;;;6.22;;
12048;SDS011;6085;49.452;8.502;2022-12-07T00:19:27;9.45;;;6.80;;
12048;SDS011;6085;49.452;8.502;2022-12-07T00:23:28;8.60;;;6.45;;
12048;SDS011;6085;49.452;8.502;2022-12-07T00:27:31;7.70;;;5.78;;
12048;SDS011;6085;49.452;8.502;2022-12-07T00:31:33;8.38;;;5.90;;
12048;SDS011;6085;49.452;8.502;2022-12-07T00:35:40;9.93;;;6.57;;
12048;SDS011;6085;49.452;8.502;2022-12-07T00:39:42;8.18;;;6.13;;
12048;SDS011;6085;49.452;8.502;2022-12-07T00:43:44;8.70;;;5.90;;
12048;SDS011;6085;49.452;8.502;2022-12-07T00:47:46;7.10;;;5.53;;
12048;SDS011;6085;49.452;8.502;2022-12-07T00:51:50;10.40;;;6.40;;
12048;SDS011;6085;49.452;8.502;2022-12-07T00:55:52;8.77;;;6.10;;
12048;SDS011;6085;49.452;8.502;2022-12-07T00:59:55;10.00;;;6.15;;
12048;SDS011;6085;49.452;8.502;2022-12-07T01:03:57;10.00;;;6.60;;
12048;SDS011;6085;49.452;8.502;2022-12-07T01:08:02;9.02;;;6.03;;
12048;SDS011;6085;49.452;8.502;2022-12-07T01:12:05;9.32;;;6.15;;
12048;SDS011;6085;49.452;8.502;2022-12-07T01:16:07;8.65;;;5.63;;
12048;SDS011;6085;49.452;8.502;2022-12-07T01:20:11;8.82;;;5.82;;
12048;SDS011;6085;49.452;8.502;2022-12-07T01:24:15;8.38;;;5.68;;
12048;SDS011;6085;49.452;8.502;2022-12-07T01:28:16;8.50;;;6.03;;
12048;SDS011;6085;49.452;8.502;2022-12-07T01:32:18;7.60;;;5.55;;
12048;SDS011;6085;49.452;8.502;2022-12-07T01:36:21;9.20;;;5.68;;
12048;SDS011;6085;49.452;8.502;2022-12-07T01:40:26;7.60;;;5.20;;
12048;SDS011;6085;49.452;8.502;2022-12-07T01:44:28;6.03;;;5.25;;
12048;SDS011;6085;49.452;8.502;2022-12-07T01:48:32;7.65;;;5.30;;
12048;SDS011;6085;49.452;8.502;2022-12-07T01:52:37;6.55;;;5.40;;
12048;SDS011;6085;49.452;8.502;2022-12-07T01:56:41;5.25;;;4.65;;
12048;SDS011;6085;49.452;8.502;2022-12-07T02:00:47;6.68;;;4.88;;
12048;SDS011;6085;49.452;8.502;2022-12-07T02:04:49;9.43;;;4.90;;
12048;SDS011;6085;49.452;8.502;2022-12-07T02:08:53;6.80;;;4.90;;
12048;SDS011;6085;49.452;8.502;2022-12-07T02:12:57;7.30;;;5.50;;
12048;SDS011;6085;49.452;8.502;2022-12-07T02:17:04;7.85;;;5.15;;
12048;SDS011;6085;49.452;8.502;2022-12-07T02:21:15;6.30;;;5.10;;
12048;SDS011;6085;49.452;8.502;2022-12-07T02:25:28;7.72;;;5.05;;
12048;SDS011;6085;49.452;8.502;2022-12-07T02:29:45;7.38;;;5.70;;
12048;SDS011;6085;49.452;8.502;2022-12-07T02:33:52;6.47;;;5.07;;
12048;SDS011;6085;49.452;8.502;2022-12-07T02:38:02;6.68;;;5.35;;
12048;SDS011;6085;49.452;8.502;2022-12-07T02:42:12;6.13;;;4.75;;
12048;SDS011;6085;49.452;8.502;2022-12-07T02:46:19;6.10;;;4.80;;
12048;SDS011;6085;49.452;8.502;2022-12-07T02:50:23;6.70;;;4.35;;
12048;SDS011;6085;49.452;8.502;2022-12-07T02:54:25;5.55;;;4.38;;
12048;SDS011;6085;49.452;8.502;2022-12-07T02:58:30;5.43;;;4.15;;
12048;SDS011;6085;49.452;8.502;2022-12-07T03:02:45;6.57;;;5.25;;
12048;SDS011;6085;49.452;8.502;2022-12-07T03:06:56;6.50;;;5.13;;
12048;SDS011;6085;49.452;8.502;2022-12-07T03:11:04;7.90;;;5.28;;
12048;SDS011;6085;49.452;8.502;2022-12-07T03:15:10;6.57;;;4.85;;
12048;SDS011;6085;49.452;8.502;2022-12-07T03:19:17;7.15;;;5.03;;
12048;SDS011;6085;49.452;8.502;2022-12-07T03:23:21;7.95;;;5.43;;
12048;SDS011;6085;49.452;8.502;2022-12-07T03:27:26;7.50;;;5.25;;
12048;SDS011;6085;49.452;8.502;2022-12-07T03:31:34;7.43;;;5.30;;
12048;SDS011;6085;49.452;8.502;2022-12-07T03:35:43;6.57;;;5.00;;
12048;SDS011;6085;49.452;8.502;2022-12-07T03:39:50;6.97;;;5.15;;
12048;SDS011;6085;49.452;8.502;2022-12-07T03:44:01;6.18;;;4.85;;
12048;SDS011;6085;49.452;8.502;2022-12-07T03:48:04;6.43;;;5.10;;
12048;SDS011;6085;49.452;8.502;2022-12-07T03:52:16;6.10;;;4.63;;
12048;SDS011;6085;49.452;8.502;2022-12-07T03:56:24;5.72;;;4.68;;
12048;SDS011;6085;49.452;8.502;2022-12-07T04:00:30;5.95;;;4.55;;
12048;SDS011;6085;49.452;8.502;2022-12-07T04:04:32;5.68;;;4.63;;
12048;SDS011;6085;49.452;8.502;2022-12-07T04:08:36;6.47;;;4.75;;
12048;SDS011;6085;49.452;8.502;2022-12-07T04:12:38;8.52;;;4.50;;
12048;SDS011;6085;49.452;8.502;2022-12-07T04:16:40;5.57;;;4.57;;
12048;SDS011;6085;49.452;8.502;2022-12-07T04:20:42;6.30;;;4.68;;
12048;SDS011;6085;49.452;8.502;2022-12-07T04:24:45;6.32;;;4.43;;
12048;SDS011;6085;49.452;8.502;2022-12-07T04:28:47;7.55;;;5.00;;
12048;SDS011;6085;49.452;8.502;2022-12-07T04:32:49;5.60;;;4.95;;
12048;SDS011;6085;49.452;8.502;2022-12-07T04:36:50;7.18;;;4.97;;
12048;SDS011;6085;49.452;8.502;2022-12-07T04:40:54;6.53;;;4.88;;
12048;SDS011;6085;49.452;8.502;2022-12-07T04:44:56;9.27;;;5.00;;
12048;SDS011;6085;49.452;8.502;2022-12-07T04:48:58;6.05;;;5.00;;
12048;SDS011;6085;49.452;8.502;2022-12-07T04:52:59;6.25;;;5.28;;
12048;SDS011;6085;49.452;8.502;2022-12-07T04:57:03;5.88;;;5.22;;
12048;SDS011;6085;49.452;8.502;2022-12-07T05:01:05;6.20;;;5.22;;
12048;SDS011;6085;49.452;8.502;2022-12-07T05:05:07;6.97;;;5.47;;
12048;SDS011;6085;49.452;8.502;2022-12-07T05:09:09;9.02;;;5.70;;
12048;SDS011;6085;49.452;8.502;2022-12-07T05:13:12;6.75;;;5.38;;
12048;SDS011;6085;49.452;8.502;2022-12-07T05:17:14;7.68;;;5.60;;
12048;SDS011;6085;49.452;8.502;2022-12-07T05:21:16;6.78;;;5.55;;
12048;SDS011;6085;49.452;8.502;2022-12-07T05:25:19;7.30;;;5.93;;
12048;SDS011;6085;49.452;8.502;2022-12-07T05:29:22;8.70;;;6.25;;
12048;SDS011;6085;49.452;8.502;2022-12-07T05:33:23;7.65;;;6.15;;
12048;SDS011;6085;49.452;8.502;2022-12-07T05:37:25;8.90;;;5.95;;
12048;SDS011;6085;49.452;8.502;2022-12-07T05:41:27;8.68;;;5.80;;
12048;SDS011;6085;49.452;8.502;2022-12-07T05:45:48;10.32;;;6.53;;
12048;SDS011;6085;49.452;8.502;2022-12-07T05:49:49;8.50;;;6.43;;
12048;SDS011;6085;49.452;8.502;2022-12-07T05:53:51;7.80;;;6.18;;
12048;SDS011;6085;49.452;8.502;2022-12-07T05:57:53;7.10;;;5.78;;
12048;SDS011;6085;49.452;8.502;2022-12-07T06:02:11;8.30;;;6.13;;
12048;SDS011;6085;49.452;8.502;2022-12-07T06:06:14;6.75;;;5.65;;
12048;SDS011;6085;49.452;8.502;2022-12-07T06:10:16;9.45;;;5.70;;
12048;SDS011;6085;49.452;8.502;2022-12-07T06:14:18;6.88;;;5.38;;
12048;SDS011;6085;49.452;8.502;2022-12-07T06:18:21;6.53;;;5.50;;
12048;SDS011;6085;49.452;8.502;2022-12-07T06:22:26;9.13;;;5.75;;
12048;SDS011;6085;49.452;8.502;2022-12-07T06:26:43;6.70;;;5.55;;
12048;SDS011;6085;49.452;8.502;2022-12-07T06:30:45;7.00;;;5.88;;
12048;SDS011;6085;49.452;8.502;2022-12-07T06:34:48;7.22;;;5.25;;
12048;SDS011;6085;49.452;8.502;2022-12-07T06:38:50;7.88;;;5.65;;
12048;SDS011;6085;49.452;8.502;2022-12-07T06:42:52;8.10;;;5.53;;
12048;SDS011;6085;49.452;8.502;2022-12-07T06:46:54;7.97;;;5.72;;
12048;SDS011;6085;49.452;8.502;2022-12-07T06:50:57;8.45;;;6.32;;
12048;SDS011;6085;49.452;8.502;2022-12-07T06:54:59;9.60;;;6.03;;
12048;SDS011;6085;49.452;8.502;2022-12-07T06:59:01;7.35;;;5.57;;
12048;SDS011;6085;49.452;8.502;2022-12-07T07:03:04;8.40;;;6.00;;
12048;SDS011;6085;49.452;8.502;2022-12-07T07:07:07;8.55;;;5.80;;
12048;SDS011;6085;49.452;8.502;2022-12-07T07:11:09;6.68;;;5.32;;
12048;SDS011;6085;49.452;8.502;2022-12-07T07:15:11;9.07;;;6.07;;
12048;SDS011;6085;49.452;8.502;2022-12-07T07:19:13;7.20;;;5.90;;
12048;SDS011;6085;49.452;8.502;2022-12-07T07:23:16;9.25;;;7.00;;
12048;SDS011;6085;49.452;8.502;2022-12-07T07:27:18;6.45;;;5.00;;
12048;SDS011;6085;49.452;8.502;2022-12-07T07:31:20;7.75;;;5.70;;
12048;SDS011;6085;49.452;8.502;2022-12-07T07:35:22;7.68;;;5.63;;
12048;SDS011;6085;49.452;8.502;2022-12-07T07:39:25;6.93;;;5.68;;
12048;SDS011;6085;49.452;8.502;2022-12-07T07:43:27;8.55;;;6.38;;
12048;SDS011;6085;49.452;8.502;2022-12-07T07:47:29;8.77;;;7.70;;
12048;SDS011;6085;49.452;8.502;2022-12-07T07:51:31;7.28;;;6.50;;
12048;SDS011;6085;49.452;8.502;2022-12-07T07:55:34;6.97;;;5.70;;
12048;SDS011;6085;49.452;8.502;2022-12-07T07:59:36;7.72;;;6.13;;
12048;SDS011;6085;49.452;8.502;2022-12-07T08:03:38;6.97;;;5.38;;
12048;SDS011;6085;49.452;8.502;2022-12-07T08:07:40;7.38;;;5.38;;
12048;SDS011;6085;49.452;8.502;2022-12-07T08:11:43;7.10;;;5.38;;
12048;SDS011;6085;49.452;8.502;2022-12-07T08:15:46;9.18;;;5.40;;
12048;SDS011;6085;49.452;8.502;2022-12-07T08:19:48;7.05;;;5.25;;
12048;SDS011;6085;49.452;8.502;2022-12-07T08:23:50;9.80;;;6.45;;
12048;SDS011;6085;49.452;8.502;2022-12-07T08:27:53;16.98;;;11.40;;
12048;SDS011;6085;49.452;8.502;2022-12-07T08:31:55;6.88;;;5.70;;
12048;SDS011;6085;49.452;8.502;2022-12-07T08:35:59;7.18;;;5.75;;
12048;SDS011;6085;49.452;8.502;2022-12-07T08:40:02;7.80;;;5.88;;
12048;SDS011;6085;49.452;8.502;2022-12-07T08:44:06;7.80;;;5.93;;
12048;SDS011;6085;49.452;8.502;2022-12-07T08:48:09;8.23;;;6.28;;
12048;SDS011;6085;49.452;8.502;2022-12-07T08:52:14;7.40;;;6.10;;
12048;SDS011;6085;49.452;8.502;2022-12-07T08:56:16;7.13;;;6.15;;
12048;SDS011;6085;49.452;8.502;2022-12-07T09:00:20;9.93;;;6.32;;
12048;SDS011;6085;49.452;8.502;2022-12-07T09:04:22;7.55;;;5.95;;
12048;SDS011;6085;49.452;8.502;2022-12-07T09:08:25;7.47;;;5.40;;
12048;SDS011;6085;49.452;8.502;2022-12-07T09:12:31;9.15;;;6.07;;
12048;SDS011;6085;49.452;8.502;2022-12-07T09:16:34;7.03;;;5.70;;
12048;SDS011;6085;49.452;8.502;2022-12-07T09:20:36;7.90;;;5.88;;
12048;SDS011;6085;49.452;8.502;2022-12-07T09:24:38;7.43;;;6.10;;
12048;SDS011;6085;49.452;8.502;2022-12-07T09:28:40;8.00;;;5.68;;
12048;SDS011;6085;49.452;8.502;2022-12-07T09:32:43;8.50;;;6.30;;
12048;SDS011;6085;49.452;8.502;2022-12-07T09:36:45;9.85;;;6.60;;
12048;SDS011;6085;49.452;8.502;2022-12-07T09:40:47;8.02;;;5.95;;
12048;SDS011;6085;49.452;8.502;2022-12-07T09:44:49;10.55;;;6.40;;
12048;SDS011;6085;49.452;8.502;2022-12-07T09:48:52;7.50;;;5.70;;
12048;SDS011;6085;49.452;8.502;2022-12-07T09:52:54;8.63;;;5.93;;
12048;SDS011;6085;49.452;8.502;2022-12-07T09:57:07;10.00;;;6.32;;
12048;SDS011;6085;49.452;8.502;2022-12-07T10:01:11;7.88;;;5.50;;
12048;SDS011;6085;49.452;8.502;2022-12-07T10:05:18;9.68;;;6.30;;
12048;SDS011;6085;49.452;8.502;2022-12-07T10:09:24;8.25;;;6.30;;
12048;SDS011;6085;49.452;8.502;2022-12-07T10:13:34;7.32;;;5.72;;
12048;SDS011;6085;49.452;8.502;2022-12-07T10:17:37;7.53;;;5.80;;
12048;SDS011;6085;49.452;8.502;2022-12-07T10:21:42;7.38;;;6.00;;
12048;SDS011;6085;49.452;8.502;2022-12-07T10:26:15;9.35;;;6.45;;
12048;SDS011;6085;49.452;8.502;2022-12-07T10:30:22;6.80;;;5.90;;
12048;SDS011;6085;49.452;8.502;2022-12-07T10:34:24;7.88;;;5.72;;
12048;SDS011;6085;49.452;8.502;2022-12-07T10:38:30;7.35;;;6.00;;
12048;SDS011;6085;49.452;8.502;2022-12-07T10:42:32;7.97;;;6.10;;
12048;SDS011;6085;49.452;8.502;2022-12-07T10:46:50;7.50;;;6.10;;
12048;SDS011;6085;49.452;8.502;2022-12-07T10:51:12;7.95;;;6.03;;
12048;SDS011;6085;49.452;8.502;2022-12-07T10:55:26;7.70;;;5.53;;
12048;SDS011;6085;49.452;8.502;2022-12-07T10:59:53;5.43;;;4.85;;
12048;SDS011;6085;49.452;8.502;2022-12-07T11:04:12;6.18;;;5.18;;
12048;SDS011;6085;49.452;8.502;2022-12-07T11:08:21;7.47;;;5.47;;
12048;SDS011;6085;49.452;8.502;2022-12-07T11:12:43;6.65;;;4.60;;
12048;SDS011;6085;49.452;8.502;2022-12-07T11:16:55;7.47;;;4.43;;
12048;SDS011;6085;49.452;8.502;2022-12-07T11:21:03;7.43;;;4.40;;
12048;SDS011;6085;49.452;8.502;2022-12-07T11:25:14;6.97;;;4.40;;
12048;SDS011;6085;49.452;8.502;2022-12-07T11:29:28;9.23;;;4.45;;
12048;SDS011;6085;49.452;8.502;2022-12-07T11:33:45;6.00;;;4.25;;
12048;SDS011;6085;49.452;8.502;2022-12-07T11:37:51;5.78;;;4.28;;
12048;SDS011;6085;49.452;8.502;2022-12-07T11:42:00;4.05;;;3.63;;
12048;SDS011;6085;49.452;8.502;2022-12-07T11:46:08;5.78;;;3.88;;
12048;SDS011;6085;49.452;8.502;2022-12-07T11:50:21;6.25;;;4.03;;
12048;SDS011;6085;49.452;8.502;2022-12-07T11:54:28;4.07;;;3.33;;
12048;SDS011;6085;49.452;8.502;2022-12-07T11:58:44;4.70;;;3.95;;
12048;SDS011;6085;49.452;8.502;2022-12-07T12:02:52;5.90;;;3.83;;
12048;SDS011;6085;49.452;8.502;2022-12-07T12:06:59;4.50;;;3.70;;
12048;SDS011;6085;49.452;8.502;2022-12-07T12:11:05;4.97;;;3.95;;
12048;SDS011;6085;49.452;8.502;2022-12-07T12:15:23;4.65;;;3.70;;
12048;SDS011;6085;49.452;8.502;2022-12-07T12:19:36;5.30;;;3.88;;
12048;SDS011;6085;49.452;8.502;2022-12-07T12:23:43;4.88;;;3.35;;
12048;SDS011;6085;49.452;8.502;2022-12-07T12:27:49;4.15;;;2.88;;
12048;SDS011;6085;49.452;8.502;2022-12-07T12:32:04;4.22;;;3.50;;
12048;SDS011;6085;49.452;8.502;2022-12-07T12:36:20;4.25;;;3.20;;
12048;SDS011;6085;49.452;8.502;2022-12-07T12:40:41;4.60;;;3.42;;
12048;SDS011;6085;49.452;8.502;2022-12-07T12:53:46;3.53;;;2.75;;
12048;SDS011;6085;49.452;8.502;2022-12-07T12:57:53;4.32;;;3.10;;
12048;SDS011;6085;49.452;8.502;2022-12-07T13:02:32;4.03;;;3.30;;
12048;SDS011;6085;49.452;8.502;2022-12-07T13:06:36;2.80;;;2.50;;
12048;SDS011;6085;49.452;8.502;2022-12-07T13:10:41;4.95;;;2.78;;
12048;SDS011;6085;49.452;8.502;2022-12-07T13:14:55;3.17;;;2.38;;
12048;SDS011;6085;49.452;8.502;2022-12-07T13:18:58;2.83;;;2.40;;
12048;SDS011;6085;49.452;8.502;2022-12-07T13:23:00;2.35;;;2.08;;
12048;SDS011;6085;49.452;8.502;2022-12-07T13:27:06;4.00;;;2.72;;
12048;SDS011;6085;49.452;8.502;2022-12-07T13:31:19;4.55;;;2.67;;
12048;SDS011;6085;49.452;8.502;2022-12-07T13:35:31;5.18;;;2.50;;
12048;SDS011;6085;49.452;8.502;2022-12-07T13:39:34;4.53;;;2.80;;
12048;SDS011;6085;49.452;8.502;2022-12-07T13:43:48;3.30;;;2.65;;
12048;SDS011;6085;49.452;8.502;2022-12-07T13:47:52;4.10;;;2.78;;
12048;SDS011;6085;49.452;8.502;2022-12-07T13:52:06;2.85;;;2.30;;
12048;SDS011;6085;49.452;8.502;2022-12-07T13:56:16;3.72;;;2.80;;
12048;SDS011;6085;49.452;8.502;2022-12-07T14:00:20;3.38;;;2.88;;
12048;SDS011;6085;49.452;8.502;2022-12-07T14:04:34;5.40;;;2.80;;
12048;SDS011;6085;49.452;8.502;2022-12-07T14:08:36;4.43;;;2.97;;
12048;SDS011;6085;49.452;8.502;2022-12-07T14:12:38;7.15;;;3.70;;
12048;SDS011;6085;49.452;8.502;2022-12-07T14:16:54;3.30;;;3.00;;
12048;SDS011;6085;49.452;8.502;2022-12-07T14:21:03;4.65;;;3.53;;
12048;SDS011;6085;49.452;8.502;2022-12-07T14:25:16;5.47;;;3.42;;
12048;SDS011;6085;49.452;8.502;2022-12-07T14:29:21;5.20;;;3.45;;
12048;SDS011;6085;49.452;8.502;2022-12-07T14:33:31;4.13;;;3.35;;
12048;SDS011;6085;49.452;8.502;2022-12-07T14:37:33;3.60;;;3.10;;
12048;SDS011;6085;49.452;8.502;2022-12-07T14:41:35;5.55;;;3.08;;
12048;SDS011;6085;49.452;8.502;2022-12-07T14:45:52;3.88;;;2.85;;
12048;SDS011;6085;49.452;8.502;2022-12-07T14:49:55;4.25;;;2.97;;
12048;SDS011;6085;49.452;8.502;2022-12-07T14:53:57;3.83;;;2.70;;
12048;SDS011;6085;49.452;8.502;2022-12-07T14:57:59;2.92;;;2.60;;
12048;SDS011;6085;49.452;8.502;2022-12-07T15:02:01;4.22;;;2.95;;
12048;SDS011;6085;49.452;8.502;2022-12-07T15:06:04;3.65;;;2.20;;
12048;SDS011;6085;49.452;8.502;2022-12-07T15:10:10;3.05;;;2.20;;
12048;SDS011;6085;49.452;8.502;2022-12-07T15:14:16;2.85;;;2.25;;
12048;SDS011;6085;49.452;8.502;2022-12-07T15:18:18;5.07;;;2.65;;
12048;SDS011;6085;49.452;8.502;2022-12-07T15:22:22;4.95;;;2.40;;
12048;SDS011;6085;49.452;8.502;2022-12-07T15:26:23;4.72;;;2.53;;
12048;SDS011;6085;49.452;8.502;2022-12-07T15:30:25;3.72;;;2.55;;
12048;SDS011;6085;49.452;8.502;2022-12-07T15:34:27;2.70;;;2.50;;
12048;SDS011;6085;49.452;8.502;2022-12-07T15:42:36;3.22;;;2.80;;
12048;SDS011;6085;49.452;8.502;2022-12-07T15:46:38;3.05;;;2.75;;
12048;SDS011;6085;49.452;8.502;2022-12-07T15:50:41;5.25;;;2.97;;
12048;SDS011;6085;49.452;8.502;2022-12-07T15:54:45;3.92;;;2.80;;
12048;SDS011;6085;49.452;8.502;2022-12-07T15:58:47;3.88;;;2.83;;
12048;SDS011;6085;49.452;8.502;2022-12-07T16:02:49;4.03;;;2.85;;
12048;SDS011;6085;49.452;8.502;2022-12-07T16:06:51;4.80;;;3.20;;
12048;SDS011;6085;49.452;8.502;2022-12-07T16:10:54;4.57;;;3.15;;
12048;SDS011;6085;49.452;8.502;2022-12-07T16:14:56;5.00;;;3.28;;
12048;SDS011;6085;49.452;8.502;2022-12-07T16:18:58;4.18;;;3.35;;
12048;SDS011;6085;49.452;8.502;2022-12-07T16:23:00;5.05;;;3.25;;
12048;SDS011;6085;49.452;8.502;2022-12-07T16:27:03;5.60;;;3.30;;
12048;SDS011;6085;49.452;8.502;2022-12-07T16:31:06;5.65;;;3.50;;
12048;SDS011;6085;49.452;8.502;2022-12-07T16:35:10;4.05;;;3.33;;
12048;SDS011;6085;49.452;8.502;2022-12-07T16:39:12;4.05;;;3.35;;
12048;SDS011;6085;49.452;8.502;2022-12-07T16:43:15;5.78;;;3.80;;
12048;SDS011;6085;49.452;8.502;2022-12-07T16:47:17;4.80;;;3.53;;
12048;SDS011;6085;49.452;8.502;2022-12-07T16:51:19;4.97;;;3.72;;
12048;SDS011;6085;49.452;8.502;2022-12-07T16:55:21;6.10;;;4.07;;
12048;SDS011;6085;49.452;8.502;2022-12-07T16:59:24;6.45;;;3.80;;
12048;SDS011;6085;49.452;8.502;2022-12-07T17:03:26;4.10;;;3.70;;
12048;SDS011;6085;49.452;8.502;2022-12-07T17:07:28;4.13;;;3.72;;
12048;SDS011;6085;49.452;8.502;2022-12-07T17:11:29;5.18;;;4.03;;
12048;SDS011;6085;49.452;8.502;2022-12-07T17:15:33;5.80;;;3.72;;
12048;SDS011;6085;49.452;8.502;2022-12-07T17:19:35;6.80;;;4.00;;
12048;SDS011;6085;49.452;8.502;2022-12-07T17:23:36;5.15;;;3.92;;
12048;SDS011;6085;49.452;8.502;2022-12-07T17:27:38;4.80;;;4.18;;
12048;SDS011;6085;49.452;8.502;2022-12-07T17:31:42;4.72;;;4.20;;
12048;SDS011;6085;49.452;8.502;2022-12-07T17:35:44;5.90;;;4.90;;
12048;SDS011;6085;49.452;8.502;2022-12-07T17:39:46;8.25;;;5.55;;
12048;SDS011;6085;49.452;8.502;2022-12-07T17:43:48;8.20;;;5.65;;
12048;SDS011;6085;49.452;8.502;2022-12-07T17:47:51;8.77;;;5.82;;
12048;SDS011;6085;49.452;8.502;2022-12-07T17:51:53;6.72;;;5.80;;
12048;SDS011;6085;49.452;8.502;2022-12-07T17:56:13;8.40;;;6.97;;
12048;SDS011;6085;49.452;8.502;2022-12-07T18:00:15;9.15;;;6.28;;
12048;SDS011;6085;49.452;8.502;2022-12-07T18:04:19;8.75;;;6.22;;
12048;SDS011;6085;49.452;8.502;2022-12-07T18:08:21;9.57;;;6.78;;
12048;SDS011;6085;49.452;8.502;2022-12-07T18:12:23;8.85;;;6.85;;
12048;SDS011;6085;49.452;8.502;2022-12-07T18:16:26;9.23;;;7.35;;
12048;SDS011;6085;49.452;8.502;2022-12-07T18:20:30;9.93;;;7.00;;
12048;SDS011;6085;49.452;8.502;2022-12-07T18:24:32;9.57;;;7.05;;
12048;SDS011;6085;49.452;8.502;2022-12-07T18:28:34;11.00;;;7.00;;
12048;SDS011;6085;49.452;8.502;2022-12-07T18:32:37;9.68;;;7.55;;
12048;SDS011;6085;49.452;8.502;2022-12-07T18:36:44;8.32;;;7.25;;
12048;SDS011;6085;49.452;8.502;2022-12-07T18:40:48;11.20;;;9.00;;
12048;SDS011;6085;49.452;8.502;2022-12-07T18:44:50;10.13;;;7.50;;
12048;SDS011;6085;49.452;8.502;2022-12-07T18:48:52;10.23;;;6.93;;
12048;SDS011;6085;49.452;8.502;2022-12-07T18:52:57;9.32;;;6.70;;
12048;SDS011;6085;49.452;8.502;2022-12-07T18:56:59;8.43;;;6.90;;
12048;SDS011;6085;49.452;8.502;2022-12-07T19:01:01;9.52;;;7.10;;
12048;SDS011;6085;49.452;8.502;2022-12-07T19:05:03;11.57;;;7.43;;
12048;SDS011;6085;49.452;8.502;2022-12-07T19:09:07;8.38;;;6.93;;
12048;SDS011;6085;49.452;8.502;2022-12-07T19:13:09;9.65;;;6.75;;
12048;SDS011;6085;49.452;8.502;2022-12-07T19:17:12;10.05;;;7.32;;
12048;SDS011;6085;49.452;8.502;2022-12-07T19:21:14;10.43;;;7.57;;
12048;SDS011;6085;49.452;8.502;2022-12-07T19:25:17;8.60;;;6.95;;
12048;SDS011;6085;49.452;8.502;2022-12-07T19:29:19;9.00;;;7.07;;
12048;SDS011;6085;49.452;8.502;2022-12-07T19:33:21;9.73;;;7.65;;
12048;SDS011;6085;49.452;8.502;2022-12-07T19:37:23;10.82;;;7.93;;
12048;SDS011;6085;49.452;8.502;2022-12-07T19:41:26;9.20;;;7.68;;
12048;SDS011;6085;49.452;8.502;2022-12-07T19:45:33;8.27;;;7.13;;
12048;SDS011;6085;49.452;8.502;2022-12-07T19:49:35;10.57;;;7.88;;
12048;SDS011;6085;49.452;8.502;2022-12-07T19:53:37;9.85;;;7.43;;
12048;SDS011;6085;49.452;8.502;2022-12-07T19:57:40;9.80;;;7.70;;
12048;SDS011;6085;49.452;8.502;2022-12-07T20:01:42;9.68;;;7.70;;
12048;SDS011;6085;49.452;8.502;2022-12-07T20:05:45;9.70;;;7.50;;
12048;SDS011;6085;49.452;8.502;2022-12-07T20:09:47;9.38;;;7.28;;
12048;SDS011;6085;49.452;8.502;2022-12-07T20:13:50;10.68;;;7.25;;
12048;SDS011;6085;49.452;8.502;2022-12-07T20:17:52;10.73;;;7.85;;
12048;SDS011;6085;49.452;8.502;2022-12-07T20:21:54;10.07;;;8.02;;
12048;SDS011;6085;49.452;8.502;2022-12-07T20:26:00;11.10;;;8.20;;
12048;SDS011;6085;49.452;8.502;2022-12-07T20:30:05;11.43;;;8.15;;
12048;SDS011;6085;49.452;8.502;2022-12-07T20:34:07;12.20;;;8.15;;
12048;SDS011;6085;49.452;8.502;2022-12-07T20:38:10;11.93;;;8.52;;
12048;SDS011;6085;49.452;8.502;2022-12-07T20:42:12;11.40;;;7.85;;
12048;SDS011;6085;49.452;8.502;2022-12-07T20:46:33;11.38;;;8.35;;
12048;SDS011;6085;49.452;8.502;2022-12-07T20:50:35;11.18;;;8.15;;
12048;SDS011;6085;49.452;8.502;2022-12-07T20:54:37;9.70;;;8.15;;
12048;SDS011;6085;49.452;8.502;2022-12-07T20:58:39;12.23;;;8.52;;
12048;SDS011;6085;49.452;8.502;2022-12-07T21:02:42;10.38;;;7.78;;
12048;SDS011;6085;49.452;8.502;2022-12-07T21:06:44;10.32;;;7.80;;
12048;SDS011;6085;49.452;8.502;2022-12-07T21:10:46;13.60;;;8.13;;
12048;SDS011;6085;49.452;8.502;2022-12-07T21:14:47;10.82;;;8.23;;
12048;SDS011;6085;49.452;8.502;2022-12-07T21:18:51;11.75;;;8.00;;
12048;SDS011;6085;49.452;8.502;2022-12-07T21:22:54;10.77;;;7.97;;
12048;SDS011;6085;49.452;8.502;2022-12-07T21:26:56;12.05;;;8.00;;
12048;SDS011;6085;49.452;8.502;2022-12-07T21:30:58;9.13;;;7.95;;
12048;SDS011;6085;49.452;8.502;2022-12-07T21:35:01;11.45;;;8.18;;
12048;SDS011;6085;49.452;8.502;2022-12-07T21:39:03;11.65;;;8.25;;
12048;SDS011;6085;49.452;8.502;2022-12-07T21:43:05;11.13;;;8.48;;
12048;SDS011;6085;49.452;8.502;2022-12-07T21:47:07;10.15;;;8.15;;
12048;SDS011;6085;49.452;8.502;2022-12-07T21:51:10;11.02;;;8.60;;
12048;SDS011;6085;49.452;8.502;2022-12-07T21:55:14;11.52;;;8.60;;
12048;SDS011;6085;49.452;8.502;2022-12-07T21:59:16;11.70;;;8.48;;
12048;SDS011;6085;49.452;8.502;2022-12-07T22:03:20;11.50;;;8.50;;
12048;SDS011;6085;49.452;8.502;2022-12-07T22:07:23;10.45;;;7.80;;
12048;SDS011;6085;49.452;8.502;2022-12-07T22:11:25;12.80;;;8.15;;
12048;SDS011;6085;49.452;8.502;2022-12-07T22:15:27;11.40;;;8.70;;
12048;SDS011;6085;49.452;8.502;2022-12-07T22:19:29;12.57;;;8.57;;
12048;SDS011;6085;49.452;8.502;2022-12-07T22:23:32;10.40;;;7.72;;
12048;SDS011;6085;49.452;8.502;2022-12-07T22:27:34;11.75;;;8.27;;
12048;SDS011;6085;49.452;8.502;2022-12-07T22:31:36;10.63;;;7.78;;
12048;SDS011;6085;49.452;8.502;2022-12-07T22:35:41;12.27;;;8.10;;
12048;SDS011;6085;49.452;8.502;2022-12-07T22:39:44;10.55;;;7.47;;
12048;SDS011;6085;49.452;8.502;2022-12-07T22:43:46;13.10;;;8.70;;
12048;SDS011;6085;49.452;8.502;2022-12-07T22:47:48;10.65;;;7.88;;
12048;SDS011;6085;49.452;8.502;2022-12-07T22:51:50;10.05;;;7.25;;
12048;SDS011;6085;49.452;8.502;2022-12-07T22:55:53;11.02;;;7.80;;
12048;SDS011;6085;49.452;8.502;2022-12-07T22:59:55;11.35;;;7.85;;
12048;SDS011;6085;49.452;8.502;2022-12-07T23:03:57;11.27;;;8.00;;
12048;SDS011;6085;49.452;8.502;2022-12-07T23:07:59;10.50;;;7.25;;
12048;SDS011;6085;49.452;8.502;2022-12-07T23:12:02;10.98;;;7.15;;
12048;SDS011;6085;49.452;8.502;2022-12-07T23:16:22;10.68;;;7.65;;
12048;SDS011;6085;49.452;8.502;2022-12-07T23:20:24;10.57;;;7.35;;
12048;SDS011;6085;49.452;8.502;2022-12-07T23:24:25;9.38;;;7.30;;
12048;SDS011;6085;49.452;8.502;2022-12-07T23:28:29;9.75;;;7.40;;
12048;SDS011;6085;49.452;8.502;2022-12-07T23:32:31;12.88;;;7.65;;
12048;SDS011;6085;49.452;8.502;2022-12-07T23:36:33;11.45;;;7.18;;
12048;SDS011;6085;49.452;8.502;2022-12-07T23:40:35;9.65;;;7.57;;
12048;SDS011;6085;49.452;8.502;2022-12-07T23:44:38;11.73;;;7.90;;
12048;SDS011;6085;49.452;8.502;2022-12-07T23:48:40;11.00;;;7.50;;
12048;SDS011;6085;49.452;8.502;2022-12-07T23:52:42;13.93;;;8.00;;
12048;SDS011;6085;49.452;8.502;2022-12-07T23:56:44;10.05;;;7.45;;
